createdAt,value
2022-11-14T00:00:26.137Z,3.67
2022-11-14T00:02:53.567Z,3.90
2022-11-14T00:05:22.840Z,3.40
2022-11-14T00:07:49.682Z,4.47
2022-11-14T00:10:19.041Z,3.87
2022-11-14T00:12:46.160Z,3.97
2022-11-14T00:15:13.837Z,3.33
2022-11-14T00:17:41.039Z,3.67
2022-11-14T00:20:10.662Z,3.70
2022-11-14T00:22:37.827Z,3.87
2022-11-14T00:25:05.326Z,3.73
2022-11-14T00:27:33.462Z,4.13
2022-11-14T00:30:00.320Z,4.10
2022-11-14T00:32:27.125Z,4.03
2022-11-14T00:34:53.936Z,4.50
2022-11-14T00:37:20.772Z,3.67
2022-11-14T00:39:47.636Z,4.40
2022-11-14T00:42:14.385Z,4.00
2022-11-14T00:44:42.551Z,3.77
2022-11-14T00:47:09.340Z,3.93
2022-11-14T00:49:36.178Z,4.27
2022-11-14T00:52:03.072Z,4.53
2022-11-14T00:54:29.896Z,4.63
2022-11-14T00:56:56.784Z,4.47
2022-11-14T00:59:23.605Z,4.17
2022-11-14T01:01:56.655Z,4.67
2022-11-14T01:04:24.651Z,4.20
2022-11-14T01:06:51.520Z,4.13
2022-11-14T01:09:18.438Z,4.80
2022-11-14T01:11:45.331Z,4.67
2022-11-14T01:14:12.246Z,3.93
2022-11-14T01:16:39.136Z,4.03
2022-11-14T01:19:07.365Z,3.67
2022-11-14T01:21:34.163Z,4.57
2022-11-14T01:24:01.025Z,4.37
2022-11-14T01:26:27.865Z,4.13
2022-11-14T01:28:54.712Z,4.20
2022-11-14T01:31:23.862Z,4.13
2022-11-14T01:33:52.392Z,4.20
2022-11-14T01:36:20.982Z,4.00
2022-11-14T01:38:51.487Z,3.90
2022-11-14T01:41:18.365Z,4.40
2022-11-14T01:43:45.345Z,4.03
2022-11-14T01:46:15.260Z,4.73
2022-11-14T01:48:45.121Z,4.77
2022-11-14T01:51:25.071Z,4.73
2022-11-14T01:53:54.607Z,4.60
2022-11-14T01:56:26.439Z,5.00
2022-11-14T01:58:59.508Z,5.43
2022-11-14T02:01:27.826Z,5.30
2022-11-14T02:03:57.251Z,4.40
2022-11-14T02:06:28.893Z,4.93
2022-11-14T02:08:57.906Z,4.40
2022-11-14T02:11:25.398Z,4.30
2022-11-14T02:13:52.333Z,4.37
2022-11-14T02:16:19.217Z,4.70
2022-11-14T02:18:45.980Z,4.50
2022-11-14T02:21:14.162Z,4.47
2022-11-14T02:23:41.010Z,4.50
2022-11-14T02:26:07.821Z,4.40
2022-11-14T02:28:34.709Z,4.47
2022-11-14T02:31:01.536Z,4.47
2022-11-14T02:33:28.426Z,3.60
2022-11-14T02:35:55.237Z,4.20
2022-11-14T02:38:23.419Z,4.27
2022-11-14T02:40:50.217Z,3.80
2022-11-14T02:43:17.046Z,4.30
2022-11-14T02:45:43.912Z,4.83
2022-11-14T02:48:10.842Z,4.73
2022-11-14T02:50:37.952Z,4.80
2022-11-14T02:53:04.797Z,4.90
2022-11-14T02:55:33.004Z,4.77
2022-11-14T02:57:59.906Z,4.87
2022-11-14T03:00:26.828Z,4.20
2022-11-14T03:02:53.846Z,4.73
2022-11-14T03:05:20.824Z,4.10
2022-11-14T03:07:47.706Z,4.00
2022-11-14T03:10:14.547Z,4.23
2022-11-14T03:12:42.702Z,4.10
2022-11-14T03:15:11.152Z,4.60
2022-11-14T03:17:37.983Z,4.60
2022-11-14T03:20:05.766Z,4.20
2022-11-14T03:22:32.669Z,4.93
2022-11-14T03:24:59.463Z,4.20
2022-11-14T03:27:26.263Z,4.10
2022-11-14T03:29:55.002Z,4.00
2022-11-14T03:32:21.808Z,4.80
2022-11-14T03:34:48.739Z,4.70
2022-11-14T03:37:15.567Z,4.27
2022-11-14T03:39:42.323Z,4.57
2022-11-14T03:42:09.593Z,4.23
2022-11-14T03:44:36.451Z,4.30
2022-11-14T03:47:04.648Z,5.33
2022-11-14T03:49:31.469Z,5.27
2022-11-14T03:51:58.313Z,4.70
2022-11-14T03:54:25.513Z,5.03
2022-11-14T03:56:52.353Z,4.60
2022-11-14T03:59:19.211Z,5.10
2022-11-14T04:01:46.110Z,4.33
2022-11-14T04:04:14.483Z,4.90
2022-11-14T04:06:41.307Z,4.87
2022-11-14T04:09:08.134Z,4.60
2022-11-14T04:11:34.939Z,4.73
2022-11-14T04:14:01.768Z,4.73
2022-11-14T04:16:28.763Z,5.27
2022-11-14T04:18:55.653Z,4.40
2022-11-14T04:21:23.774Z,4.50
2022-11-14T04:23:50.698Z,4.77
2022-11-14T04:26:19.949Z,4.40
2022-11-14T04:28:46.835Z,4.80
2022-11-14T04:31:13.637Z,5.40
2022-11-14T04:33:40.496Z,5.87
2022-11-14T04:36:07.931Z,5.93
2022-11-14T04:38:36.568Z,4.80
2022-11-14T04:41:03.380Z,5.43
2022-11-14T04:43:30.216Z,5.37
2022-11-14T04:45:56.986Z,5.80
2022-11-14T04:48:23.773Z,5.40
2022-11-14T04:50:50.589Z,5.50
2022-11-14T04:53:17.431Z,6.27
2022-11-14T04:55:46.047Z,6.73
2022-11-14T04:58:12.859Z,6.17
2022-11-14T05:00:39.740Z,7.30
2022-11-14T05:03:06.526Z,7.30
2022-11-14T05:05:35.966Z,7.70
2022-11-14T05:08:06.078Z,7.90
2022-11-14T05:10:32.846Z,7.23
2022-11-14T05:13:01.791Z,6.63
2022-11-14T05:15:28.575Z,6.67
2022-11-14T05:17:57.356Z,6.67
2022-11-14T05:20:24.194Z,6.70
2022-11-14T05:22:53.720Z,6.80
2022-11-14T05:25:20.672Z,6.40
2022-11-14T05:27:47.548Z,6.47
2022-11-14T05:30:16.534Z,6.73
2022-11-14T05:32:43.347Z,5.83
2022-11-14T05:35:10.104Z,6.33
2022-11-14T05:37:37.142Z,6.20
2022-11-14T05:40:05.047Z,7.00
2022-11-14T05:42:32.081Z,7.17
2022-11-14T05:44:58.901Z,6.70
2022-11-14T05:47:27.022Z,6.90
2022-11-14T05:49:53.848Z,6.80
2022-11-14T05:52:20.646Z,7.17
2022-11-14T05:54:47.446Z,6.60
2022-11-14T05:57:16.155Z,7.50
2022-11-14T05:59:43.042Z,8.20
2022-11-14T06:02:10.014Z,8.30
2022-11-14T06:04:38.435Z,8.60
2022-11-14T06:07:05.350Z,9.10
2022-11-14T06:09:32.212Z,8.77
2022-11-14T06:11:59.066Z,8.53
2022-11-14T06:14:26.060Z,8.90
2022-11-14T06:16:52.872Z,9.10
2022-11-14T06:19:21.673Z,10.40
2022-11-14T06:21:49.872Z,9.33
2022-11-14T06:24:16.796Z,8.67
2022-11-14T06:26:43.674Z,8.23
2022-11-14T06:29:10.638Z,8.90
2022-11-14T06:31:37.448Z,9.70
2022-11-14T06:34:05.140Z,8.53
2022-11-14T06:36:31.958Z,8.73
2022-11-14T06:39:00.127Z,9.60
2022-11-14T06:41:26.979Z,9.63
2022-11-14T06:43:54.753Z,9.30
2022-11-14T06:46:22.811Z,10.20
2022-11-14T06:48:50.367Z,9.53
2022-11-14T06:51:20.228Z,11.03
2022-11-14T06:53:47.128Z,12.07
2022-11-14T06:56:16.883Z,10.93
2022-11-14T06:58:45.429Z,12.30
2022-11-14T07:01:14.034Z,11.87
2022-11-14T07:03:44.224Z,11.43
2022-11-14T07:06:12.794Z,12.63
2022-11-14T07:08:39.670Z,13.27
2022-11-14T07:11:08.259Z,24.67
2022-11-14T07:13:37.052Z,16.23
2022-11-14T07:16:05.550Z,15.10
2022-11-14T07:18:33.991Z,14.60
2022-11-14T07:21:02.531Z,13.63
2022-11-14T07:23:30.219Z,13.30
2022-11-14T07:26:00.822Z,13.57
2022-11-14T07:28:28.216Z,12.87
2022-11-14T07:30:56.867Z,13.37
2022-11-14T07:33:23.747Z,13.23
2022-11-14T07:35:50.986Z,14.67
2022-11-14T07:38:17.841Z,13.63
2022-11-14T07:40:59.057Z,14.60
2022-11-14T07:43:27.185Z,14.07
2022-11-14T07:45:58.411Z,14.43
2022-11-14T07:48:25.393Z,14.93
2022-11-14T07:50:52.244Z,16.27
2022-11-14T07:53:19.768Z,15.77
2022-11-14T07:55:46.644Z,15.57
2022-11-14T07:58:13.608Z,16.43
2022-11-14T08:00:40.505Z,15.33
2022-11-14T08:03:09.255Z,16.20
2022-11-14T08:05:37.006Z,16.60
2022-11-14T08:08:04.909Z,15.70
2022-11-14T08:10:33.933Z,16.50
2022-11-14T08:13:30.374Z,16.77
2022-11-14T08:15:49.150Z,14.97
2022-11-14T08:18:17.621Z,15.43
2022-11-14T08:20:44.778Z,14.93
2022-11-14T08:23:12.346Z,15.40
2022-11-14T08:25:39.752Z,16.10
2022-11-14T08:28:06.655Z,14.87
2022-11-14T08:30:33.695Z,15.00
2022-11-14T08:33:03.338Z,15.43
2022-11-14T08:35:32.771Z,15.00
2022-11-14T08:38:01.370Z,15.77
2022-11-14T08:40:28.266Z,14.53
2022-11-14T08:42:59.143Z,14.27
2022-11-14T08:45:26.071Z,16.10
2022-11-14T08:47:53.682Z,15.50
2022-11-14T08:50:20.640Z,16.47
2022-11-14T08:52:52.069Z,15.40
2022-11-14T08:55:19.342Z,15.13
2022-11-14T08:57:49.421Z,14.80
2022-11-14T09:00:17.795Z,14.90
2022-11-14T09:02:45.799Z,16.03
2022-11-14T09:05:14.563Z,14.77
2022-11-14T09:07:42.476Z,14.90
2022-11-14T09:10:11.158Z,14.13
2022-11-14T09:12:38.643Z,14.80
2022-11-14T09:15:06.707Z,15.93
2022-11-14T09:17:33.809Z,14.27
2022-11-14T09:20:00.751Z,14.97
2022-11-14T09:22:27.748Z,13.73
2022-11-14T09:24:54.664Z,15.20
2022-11-14T09:27:23.604Z,14.30
2022-11-14T09:29:50.529Z,15.23
2022-11-14T09:32:18.129Z,14.67
2022-11-14T09:34:45.736Z,14.40
2022-11-14T09:37:13.610Z,15.27
2022-11-14T09:39:40.831Z,14.63
2022-11-14T09:42:25.941Z,12.77
2022-11-14T09:44:58.122Z,14.13
2022-11-14T09:47:29.132Z,13.47
2022-11-14T09:50:01.275Z,13.97
2022-11-14T09:52:35.047Z,13.07
2022-11-14T09:55:12.102Z,13.33
2022-11-14T09:57:42.774Z,13.27
2022-11-14T10:00:14.965Z,12.00
2022-11-14T10:02:52.577Z,12.97
2022-11-14T10:05:34.090Z,11.43
2022-11-14T10:08:22.084Z,11.93
2022-11-14T10:10:53.300Z,11.17
2022-11-14T10:13:52.817Z,11.13
2022-11-14T10:16:26.008Z,11.50
2022-11-14T10:19:17.277Z,11.13
2022-11-14T10:21:59.286Z,11.00
2022-11-14T10:25:01.192Z,11.53
2022-11-14T10:27:33.193Z,10.80
2022-11-14T10:30:11.347Z,10.57
2022-11-14T10:33:03.704Z,9.70
2022-11-14T10:35:36.046Z,9.73
2022-11-14T10:38:11.232Z,9.47
2022-11-14T10:40:41.160Z,9.33
2022-11-14T10:43:20.445Z,9.13
2022-11-14T10:45:53.491Z,8.93
2022-11-14T10:48:31.261Z,9.57
2022-11-14T10:51:00.145Z,9.80
2022-11-14T10:53:36.268Z,9.70
2022-11-14T10:56:05.313Z,9.73
2022-11-14T10:58:46.643Z,10.33
2022-11-14T11:01:37.713Z,8.80
2022-11-14T11:04:26.147Z,9.20
2022-11-14T11:06:55.184Z,10.13
2022-11-14T11:09:45.701Z,9.10
2022-11-14T11:12:17.082Z,9.73
2022-11-14T11:14:44.818Z,9.63
2022-11-14T11:17:21.988Z,9.50
2022-11-14T11:19:49.914Z,9.23
2022-11-14T11:22:38.319Z,9.80
2022-11-14T11:25:23.690Z,9.27
2022-11-14T11:28:04.743Z,10.03
2022-11-14T11:30:31.631Z,9.30
2022-11-14T11:33:15.244Z,9.70
2022-11-14T11:35:43.570Z,10.10
2022-11-14T11:38:15.668Z,10.53
2022-11-14T11:40:44.798Z,9.57
2022-11-14T11:43:38.003Z,9.73
2022-11-14T11:46:09.539Z,9.90
2022-11-14T11:48:40.290Z,9.23
2022-11-14T11:51:13.834Z,9.87
2022-11-14T11:53:44.660Z,9.40
2022-11-14T11:56:14.584Z,8.73
2022-11-14T11:58:46.137Z,8.70
2022-11-14T12:01:14.360Z,9.53
2022-11-14T12:03:46.626Z,9.47
2022-11-14T12:06:17.450Z,9.17
2022-11-14T12:08:56.716Z,8.77
2022-11-14T12:11:27.020Z,8.87
2022-11-14T12:14:16.708Z,9.27
2022-11-14T12:17:24.142Z,8.53
2022-11-14T12:20:05.175Z,9.13
2022-11-14T12:23:04.842Z,8.87
2022-11-14T12:26:05.705Z,8.60
2022-11-14T12:28:50.130Z,7.70
2022-11-14T12:31:18.245Z,8.47
2022-11-14T12:33:49.626Z,7.70
2022-11-14T12:36:17.910Z,8.33
2022-11-14T12:38:48.197Z,8.73
2022-11-14T12:41:24.404Z,8.43
2022-11-14T12:43:51.407Z,8.87
2022-11-14T12:46:18.677Z,8.63
2022-11-14T12:48:47.279Z,8.33
2022-11-14T12:51:50.407Z,7.83
2022-11-14T12:54:45.405Z,8.47
2022-11-14T12:57:42.098Z,8.47
2022-11-14T13:00:10.031Z,8.70
2022-11-14T13:02:59.392Z,8.23
2022-11-14T13:05:50.934Z,8.17
2022-11-14T13:08:42.134Z,7.67
2022-11-14T13:11:53.515Z,9.00
2022-11-14T13:14:39.694Z,8.80
2022-11-14T13:17:29.578Z,9.13
2022-11-14T13:20:15.985Z,9.13
2022-11-14T13:22:44.197Z,8.30
2022-11-14T13:25:21.793Z,7.70
2022-11-14T13:31:07.536Z,8.63
2022-11-14T13:33:45.013Z,7.90
2022-11-14T13:36:14.592Z,8.03
2022-11-14T13:39:10.600Z,7.13
2022-11-14T13:42:19.875Z,6.90
2022-11-14T13:45:17.873Z,7.30
2022-11-14T13:48:24.357Z,6.37
2022-11-14T13:50:55.183Z,6.90
2022-11-14T13:53:26.030Z,6.00
2022-11-14T13:55:59.546Z,6.30
2022-11-14T13:58:42.473Z,6.57
2022-11-14T14:01:22.248Z,6.03
2022-11-14T14:04:12.971Z,6.20
2022-11-14T14:06:52.640Z,4.87
2022-11-14T14:09:28.418Z,4.83
2022-11-14T14:12:18.914Z,4.70
2022-11-14T14:15:05.477Z,5.27
2022-11-14T14:17:42.453Z,4.97
2022-11-14T14:20:29.260Z,4.43
2022-11-14T14:23:03.088Z,4.73
2022-11-14T14:25:37.551Z,5.23
2022-11-14T14:28:14.728Z,4.50
2022-11-14T14:31:01.404Z,4.80
2022-11-14T14:33:30.131Z,4.80
2022-11-14T14:35:57.157Z,5.63
2022-11-14T14:38:25.908Z,5.20
2022-11-14T14:40:55.422Z,4.77
2022-11-14T14:43:30.320Z,5.00
2022-11-14T14:45:58.998Z,4.33
2022-11-14T14:48:28.824Z,4.40
2022-11-14T14:50:58.083Z,4.20
2022-11-14T14:53:27.251Z,4.63
2022-11-14T14:55:56.915Z,4.40
2022-11-14T14:58:26.589Z,4.20
2022-11-14T15:00:55.905Z,3.70
2022-11-14T15:03:26.318Z,4.03
2022-11-14T15:06:03.825Z,3.90
2022-11-14T15:08:36.994Z,4.03
2022-11-14T15:11:04.350Z,4.73
2022-11-14T15:13:32.094Z,4.33
2022-11-14T15:15:59.351Z,4.70
2022-11-14T15:18:30.898Z,4.33
2022-11-14T15:21:09.044Z,5.00
2022-11-14T15:23:37.436Z,4.80
2022-11-14T15:26:10.182Z,4.47
2022-11-14T15:28:37.063Z,4.53
2022-11-14T15:31:05.342Z,4.27
2022-11-14T15:33:34.960Z,4.77
2022-11-14T15:36:07.475Z,4.20
2022-11-14T15:38:44.070Z,4.73
2022-11-14T15:41:18.899Z,4.40
2022-11-14T15:43:50.788Z,3.83
2022-11-14T15:46:33.129Z,3.90
2022-11-14T15:49:06.994Z,4.17
2022-11-14T15:51:44.231Z,4.07
2022-11-14T15:54:26.870Z,4.20
2022-11-14T15:56:54.838Z,4.50
2022-11-14T15:59:22.031Z,3.93
2022-11-14T16:01:51.742Z,4.53
2022-11-14T16:04:22.059Z,3.93
2022-11-14T16:06:48.980Z,5.40
2022-11-14T16:09:17.125Z,4.97
2022-11-14T16:11:44.285Z,4.67
2022-11-14T16:14:11.466Z,5.30
2022-11-14T16:16:38.655Z,5.77
2022-11-14T16:19:06.709Z,6.07
2022-11-14T16:21:36.830Z,4.90
2022-11-14T16:24:04.181Z,5.87
2022-11-14T16:26:31.406Z,6.13
2022-11-14T16:29:00.077Z,5.37
2022-11-14T16:31:26.926Z,5.20
2022-11-14T16:33:54.836Z,5.50
2022-11-14T16:36:22.594Z,5.23
2022-11-14T16:38:52.559Z,5.17
2022-11-14T16:41:19.845Z,5.07
2022-11-14T16:43:46.762Z,5.10
2022-11-14T16:46:13.678Z,6.43
2022-11-14T16:48:40.614Z,4.93
2022-11-14T16:51:33.070Z,4.70
2022-11-14T16:53:56.906Z,5.57
2022-11-14T16:56:24.095Z,5.33
2022-11-14T16:58:54.600Z,5.23
2022-11-14T17:01:21.808Z,5.43
2022-11-14T17:03:48.725Z,5.47
2022-11-14T17:06:15.690Z,6.03
2022-11-14T17:08:42.457Z,5.63
2022-11-14T17:11:11.070Z,5.47
2022-11-14T17:13:38.157Z,5.77
2022-11-14T17:16:05.687Z,5.57
2022-11-14T17:18:38.107Z,5.43
2022-11-14T17:21:06.426Z,5.67
2022-11-14T17:23:33.303Z,5.70
2022-11-14T17:26:05.244Z,5.40
2022-11-14T17:28:33.954Z,5.70
2022-11-14T17:31:05.284Z,4.83
2022-11-14T17:33:32.390Z,5.77
2022-11-14T17:36:03.852Z,5.67
2022-11-14T17:38:32.820Z,5.93
2022-11-14T17:40:59.786Z,5.73
2022-11-14T17:43:26.805Z,5.70
2022-11-14T17:45:58.153Z,5.47
2022-11-14T17:48:25.371Z,5.30
2022-11-14T17:50:52.432Z,6.33
2022-11-14T17:53:19.783Z,6.00
2022-11-14T17:55:46.911Z,6.07
2022-11-14T17:58:14.990Z,5.90
2022-11-14T18:00:41.965Z,6.13
2022-11-14T18:03:10.137Z,5.70
2022-11-14T18:05:36.963Z,5.97
2022-11-14T18:08:03.962Z,5.63
2022-11-14T18:10:30.838Z,5.53
2022-11-14T18:12:57.852Z,5.80
2022-11-14T18:15:27.891Z,5.73
2022-11-14T18:17:55.424Z,6.00
2022-11-14T18:20:24.088Z,5.60
2022-11-14T18:22:51.267Z,6.47
2022-11-14T18:25:18.199Z,5.87
2022-11-14T18:27:45.007Z,5.90
2022-11-14T18:30:39.705Z,6.10
2022-11-14T18:32:59.297Z,6.40
2022-11-14T18:35:27.523Z,5.67
2022-11-14T18:37:56.319Z,5.90
2022-11-14T18:40:23.231Z,6.70
2022-11-14T18:42:50.030Z,6.23
2022-11-14T18:45:17.111Z,5.90
2022-11-14T18:47:43.979Z,6.23
2022-11-14T18:50:10.836Z,6.17
2022-11-14T18:52:39.079Z,6.67
2022-11-14T18:55:07.895Z,6.53
2022-11-14T18:57:34.703Z,6.50
2022-11-14T19:00:01.589Z,7.53
2022-11-14T19:02:28.411Z,7.17
2022-11-14T19:04:55.272Z,7.53
2022-11-14T19:07:22.199Z,7.53
2022-11-14T19:09:50.412Z,7.47
2022-11-14T19:12:22.084Z,7.93
2022-11-14T19:14:53.643Z,7.73
2022-11-14T19:17:21.010Z,7.83
2022-11-14T19:19:48.883Z,7.67
2022-11-14T19:22:16.115Z,7.87
2022-11-14T19:24:44.996Z,7.80
2022-11-14T19:27:13.515Z,7.53
2022-11-14T19:29:40.694Z,7.87
2022-11-14T19:32:08.030Z,8.37
2022-11-14T19:34:34.955Z,7.87
2022-11-14T19:37:01.834Z,8.77
2022-11-14T19:39:28.981Z,7.37
2022-11-14T19:41:55.853Z,7.87
2022-11-14T19:44:24.043Z,7.73
2022-11-14T19:46:50.906Z,7.30
2022-11-14T19:49:17.741Z,8.37
2022-11-14T19:51:44.705Z,7.80
2022-11-14T19:54:11.912Z,8.00
2022-11-14T19:56:38.872Z,7.93
2022-11-14T19:59:11.072Z,7.70
2022-11-14T20:01:42.212Z,8.93
2022-11-14T20:04:12.351Z,7.87
2022-11-14T20:06:40.190Z,7.87
2022-11-14T20:09:08.840Z,7.73
2022-11-14T20:11:35.766Z,8.17
2022-11-14T20:14:02.867Z,8.60
2022-11-14T20:16:31.815Z,8.60
2022-11-14T20:19:01.609Z,10.03
2022-11-14T20:21:30.582Z,17.17
2022-11-14T20:23:57.620Z,20.93
2022-11-14T20:26:25.055Z,15.57
2022-11-14T20:28:53.809Z,8.73
2022-11-14T20:31:23.063Z,8.20
2022-11-14T20:33:51.949Z,8.07
2022-11-14T20:36:21.915Z,8.53
2022-11-14T20:38:49.605Z,10.93
2022-11-14T20:41:17.084Z,9.83
2022-11-14T20:43:44.365Z,9.43
2022-11-14T20:46:13.627Z,9.73
2022-11-14T20:48:41.374Z,9.33
2022-11-14T20:51:11.070Z,8.20
2022-11-14T20:53:39.934Z,8.57
2022-11-14T20:56:07.433Z,8.80
2022-11-14T20:58:34.629Z,8.27
2022-11-14T21:01:02.149Z,7.80
2022-11-14T21:03:29.667Z,8.53
2022-11-14T21:05:56.743Z,8.23
2022-11-14T21:08:23.626Z,7.37
2022-11-14T21:10:58.798Z,7.60
2022-11-14T21:13:44.503Z,8.97
2022-11-14T21:16:13.562Z,7.90
2022-11-14T21:18:45.153Z,7.73
2022-11-14T21:21:16.337Z,7.13
2022-11-14T21:23:43.535Z,7.70
2022-11-14T21:26:14.011Z,7.27
2022-11-14T21:28:42.843Z,7.77
2022-11-14T21:31:17.955Z,8.50
2022-11-14T21:33:45.782Z,7.83
2022-11-14T21:36:43.386Z,8.17
2022-11-14T21:39:01.214Z,8.30
2022-11-14T21:41:31.822Z,7.80
2022-11-14T21:44:00.551Z,8.90
2022-11-14T21:46:28.587Z,7.87
2022-11-14T21:48:56.976Z,8.23
2022-11-14T21:51:25.321Z,8.00
2022-11-14T21:53:54.615Z,8.17
2022-11-14T21:56:23.304Z,8.13
2022-11-14T21:59:12.106Z,7.93
2022-11-14T22:01:58.521Z,8.90
2022-11-14T22:04:25.667Z,8.00
2022-11-14T22:06:52.749Z,7.53
2022-11-14T22:09:19.894Z,7.70
2022-11-14T22:11:46.770Z,7.53
2022-11-14T22:14:15.133Z,8.43
2022-11-14T22:16:41.986Z,8.13
2022-11-14T22:19:08.890Z,8.13
2022-11-14T22:21:35.778Z,7.40
2022-11-14T22:24:02.642Z,7.73
2022-11-14T22:26:29.606Z,8.10
2022-11-14T22:28:56.709Z,7.33
2022-11-14T22:31:25.030Z,8.13
2022-11-14T22:33:53.814Z,8.03
2022-11-14T22:36:22.624Z,7.20
2022-11-14T22:38:50.149Z,7.17
2022-11-14T22:41:19.308Z,8.37
2022-11-14T22:43:46.807Z,8.17
2022-11-14T22:46:15.367Z,8.70
2022-11-14T22:48:45.113Z,7.87
2022-11-14T22:51:13.660Z,7.93
2022-11-14T22:53:40.983Z,7.37
2022-11-14T22:56:10.168Z,7.17
2022-11-14T22:58:38.637Z,7.10
2022-11-14T23:01:11.508Z,7.77
2022-11-14T23:03:38.810Z,8.00
2022-11-14T23:06:12.211Z,7.70
2022-11-14T23:08:40.698Z,8.20
2022-11-14T23:11:11.135Z,8.03
2022-11-14T23:13:39.110Z,7.17
2022-11-14T23:16:07.975Z,8.03
2022-11-14T23:18:34.944Z,8.00
2022-11-14T23:21:05.604Z,7.60
2022-11-14T23:23:34.174Z,8.10
2022-11-14T23:26:05.559Z,7.93
2022-11-14T23:28:33.266Z,7.93
2022-11-14T23:31:00.982Z,7.90
2022-11-14T23:33:27.940Z,8.20
2022-11-14T23:35:54.791Z,7.83
2022-11-14T23:38:21.860Z,8.47
2022-11-14T23:40:53.897Z,8.00
2022-11-14T23:43:20.982Z,7.70
2022-11-14T23:45:48.389Z,7.90
2022-11-14T23:48:15.994Z,8.30
2022-11-14T23:50:42.936Z,7.80
2022-11-14T23:53:10.315Z,7.97
2022-11-14T23:55:37.704Z,7.47
2022-11-14T23:58:06.004Z,7.27
